Anstruther, United Kingdom
Current Conditions -  °F | °C
As of 1:50 PM on Monday 22 Dec 2014 (Local Time) from EGQL Reporting Station
Broken Clouds Broken Clouds  
Wind Chill: 39°   Ceiling: 19000
Heat Index: 46°   Visibility: 6mi
Dew Point: 41°   Wind: 22mph
Humidity: 81%   Direction: 250°WSW
Pressure: 29.56"   Gusts: NA
Location:  56.22°N, 2.7°W
Report Text: EGQL 221350Z 25019KT 9999 FEW015 BKN190 08/05 Q1001 BLU
Loading
Personal Weather Stations






























Interactive Weather Map New forecast layout! Learn more

10-Day Weather Forecast

Advertisements
Track Severe Weather on mobile